sensor_id;sensor_type;location;lat;lon;timestamp;P1;durP1;ratioP1;P2;durP2;ratioP2
12328;SDS011;6230;52.390;10.256;2022-12-18T00:01:50;35.57;;;22.17;;
12328;SDS011;6230;52.390;10.256;2022-12-18T00:04:22;34.73;;;22.30;;
12328;SDS011;6230;52.390;10.256;2022-12-18T00:06:50;33.87;;;21.73;;
12328;SDS011;6230;52.390;10.256;2022-12-18T00:09:16;32.77;;;21.73;;
12328;SDS011;6230;52.390;10.256;2022-12-18T00:11:41;32.70;;;21.80;;
12328;SDS011;6230;52.390;10.256;2022-12-18T00:14:08;33.83;;;23.47;;
12328;SDS011;6230;52.390;10.256;2022-12-18T00:16:35;35.13;;;23.10;;
12328;SDS011;6230;52.390;10.256;2022-12-18T00:19:02;37.60;;;22.80;;
12328;SDS011;6230;52.390;10.256;2022-12-18T00:21:29;37.43;;;23.83;;
12328;SDS011;6230;52.390;10.256;2022-12-18T00:23:56;33.00;;;22.63;;
12328;SDS011;6230;52.390;10.256;2022-12-18T00:26:22;36.30;;;23.87;;
12328;SDS011;6230;52.390;10.256;2022-12-18T00:28:53;36.17;;;24.77;;
12328;SDS011;6230;52.390;10.256;2022-12-18T00:31:21;37.97;;;26.43;;
12328;SDS011;6230;52.390;10.256;2022-12-18T00:33:48;38.80;;;25.93;;
12328;SDS011;6230;52.390;10.256;2022-12-18T00:36:18;52.67;;;28.67;;
12328;SDS011;6230;52.390;10.256;2022-12-18T00:38:45;48.57;;;30.70;;
12328;SDS011;6230;52.390;10.256;2022-12-18T00:41:12;33.73;;;23.90;;
12328;SDS011;6230;52.390;10.256;2022-12-18T00:43:59;48.33;;;28.73;;
12328;SDS011;6230;52.390;10.256;2022-12-18T00:46:25;65.17;;;35.40;;
12328;SDS011;6230;52.390;10.256;2022-12-18T00:48:51;33.70;;;23.17;;
12328;SDS011;6230;52.390;10.256;2022-12-18T00:51:16;50.90;;;30.07;;
12328;SDS011;6230;52.390;10.256;2022-12-18T00:53:42;46.63;;;27.07;;
12328;SDS011;6230;52.390;10.256;2022-12-18T00:56:07;47.40;;;28.73;;
12328;SDS011;6230;52.390;10.256;2022-12-18T00:58:36;42.80;;;28.10;;
12328;SDS011;6230;52.390;10.256;2022-12-18T01:01:03;39.90;;;25.67;;
12328;SDS011;6230;52.390;10.256;2022-12-18T01:03:29;43.67;;;27.43;;
12328;SDS011;6230;52.390;10.256;2022-12-18T01:05:55;41.13;;;24.63;;
12328;SDS011;6230;52.390;10.256;2022-12-18T01:08:21;36.77;;;23.33;;
12328;SDS011;6230;52.390;10.256;2022-12-18T01:10:47;34.83;;;22.30;;
12328;SDS011;6230;52.390;10.256;2022-12-18T01:13:12;46.87;;;25.27;;
12328;SDS011;6230;52.390;10.256;2022-12-18T01:15:38;34.50;;;23.33;;
12328;SDS011;6230;52.390;10.256;2022-12-18T01:18:05;41.30;;;25.57;;
12328;SDS011;6230;52.390;10.256;2022-12-18T01:20:32;37.67;;;22.97;;
12328;SDS011;6230;52.390;10.256;2022-12-18T01:22:58;32.67;;;20.77;;
12328;SDS011;6230;52.390;10.256;2022-12-18T01:25:23;28.97;;;21.37;;
12328;SDS011;6230;52.390;10.256;2022-12-18T01:27:50;30.27;;;20.70;;
12328;SDS011;6230;52.390;10.256;2022-12-18T01:30:15;30.63;;;21.10;;
12328;SDS011;6230;52.390;10.256;2022-12-18T01:32:41;37.10;;;23.47;;
12328;SDS011;6230;52.390;10.256;2022-12-18T01:35:07;32.67;;;20.67;;
12328;SDS011;6230;52.390;10.256;2022-12-18T01:37:32;33.03;;;20.80;;
12328;SDS011;6230;52.390;10.256;2022-12-18T01:39:58;31.87;;;21.27;;
12328;SDS011;6230;52.390;10.256;2022-12-18T01:42:24;31.73;;;20.93;;
12328;SDS011;6230;52.390;10.256;2022-12-18T01:47:25;27.27;;;19.43;;
12328;SDS011;6230;52.390;10.256;2022-12-18T01:52:43;35.37;;;21.47;;
12328;SDS011;6230;52.390;10.256;2022-12-18T01:55:13;35.17;;;22.17;;
12328;SDS011;6230;52.390;10.256;2022-12-18T01:57:41;37.90;;;23.00;;
12328;SDS011;6230;52.390;10.256;2022-12-18T02:00:09;36.00;;;22.80;;
12328;SDS011;6230;52.390;10.256;2022-12-18T02:02:37;35.43;;;22.03;;
12328;SDS011;6230;52.390;10.256;2022-12-18T02:05:03;41.00;;;22.20;;
12328;SDS011;6230;52.390;10.256;2022-12-18T02:13:36;33.10;;;21.77;;
12328;SDS011;6230;52.390;10.256;2022-12-18T02:18:30;32.27;;;20.00;;
12328;SDS011;6230;52.390;10.256;2022-12-18T02:21:12;30.80;;;19.90;;
12328;SDS011;6230;52.390;10.256;2022-12-18T02:26:38;32.20;;;19.70;;
12328;SDS011;6230;52.390;10.256;2022-12-18T02:29:16;27.37;;;18.30;;
12328;SDS011;6230;52.390;10.256;2022-12-18T02:31:48;30.27;;;20.23;;
12328;SDS011;6230;52.390;10.256;2022-12-18T02:34:18;31.27;;;21.13;;
12328;SDS011;6230;52.390;10.256;2022-12-18T02:36:47;27.63;;;17.87;;
12328;SDS011;6230;52.390;10.256;2022-12-18T02:39:14;27.73;;;18.07;;
12328;SDS011;6230;52.390;10.256;2022-12-18T02:41:41;29.20;;;18.80;;
12328;SDS011;6230;52.390;10.256;2022-12-18T02:44:08;29.33;;;18.80;;
12328;SDS011;6230;52.390;10.256;2022-12-18T02:46:36;35.50;;;22.57;;
12328;SDS011;6230;52.390;10.256;2022-12-18T02:54:51;31.13;;;19.07;;
12328;SDS011;6230;52.390;10.256;2022-12-18T02:57:30;24.73;;;18.20;;
12328;SDS011;6230;52.390;10.256;2022-12-18T03:02:42;28.03;;;18.40;;
12328;SDS011;6230;52.390;10.256;2022-12-18T03:05:33;31.00;;;18.77;;
12328;SDS011;6230;52.390;10.256;2022-12-18T03:08:06;25.47;;;17.70;;
12328;SDS011;6230;52.390;10.256;2022-12-18T03:10:36;29.97;;;19.53;;
12328;SDS011;6230;52.390;10.256;2022-12-18T03:13:08;30.70;;;20.37;;
12328;SDS011;6230;52.390;10.256;2022-12-18T03:15:43;33.70;;;20.60;;
12328;SDS011;6230;52.390;10.256;2022-12-18T03:18:16;30.53;;;20.30;;
12328;SDS011;6230;52.390;10.256;2022-12-18T03:20:45;29.83;;;19.23;;
12328;SDS011;6230;52.390;10.256;2022-12-18T03:23:15;32.53;;;20.97;;
12328;SDS011;6230;52.390;10.256;2022-12-18T03:25:44;30.57;;;20.27;;
12328;SDS011;6230;52.390;10.256;2022-12-18T03:28:15;33.43;;;21.70;;
12328;SDS011;6230;52.390;10.256;2022-12-18T03:30:45;29.70;;;19.93;;
12328;SDS011;6230;52.390;10.256;2022-12-18T03:33:19;31.87;;;21.17;;
12328;SDS011;6230;52.390;10.256;2022-12-18T03:35:51;32.77;;;20.77;;
12328;SDS011;6230;52.390;10.256;2022-12-18T03:38:17;34.70;;;21.17;;
12328;SDS011;6230;52.390;10.256;2022-12-18T03:43:09;32.63;;;20.33;;
12328;SDS011;6230;52.390;10.256;2022-12-18T03:45:43;32.40;;;21.10;;
12328;SDS011;6230;52.390;10.256;2022-12-18T03:48:29;33.70;;;19.77;;
12328;SDS011;6230;52.390;10.256;2022-12-18T03:51:07;28.40;;;19.67;;
12328;SDS011;6230;52.390;10.256;2022-12-18T03:53:56;28.13;;;18.77;;
12328;SDS011;6230;52.390;10.256;2022-12-18T03:56:26;32.87;;;19.57;;
12328;SDS011;6230;52.390;10.256;2022-12-18T03:58:56;33.47;;;19.23;;
12328;SDS011;6230;52.390;10.256;2022-12-18T04:01:26;30.57;;;19.73;;
12328;SDS011;6230;52.390;10.256;2022-12-18T04:03:59;32.23;;;19.03;;
12328;SDS011;6230;52.390;10.256;2022-12-18T04:06:26;34.10;;;19.93;;
12328;SDS011;6230;52.390;10.256;2022-12-18T04:08:52;35.57;;;21.57;;
12328;SDS011;6230;52.390;10.256;2022-12-18T04:11:18;36.90;;;20.37;;
12328;SDS011;6230;52.390;10.256;2022-12-18T04:13:44;30.03;;;19.63;;
12328;SDS011;6230;52.390;10.256;2022-12-18T04:16:09;26.77;;;18.67;;
12328;SDS011;6230;52.390;10.256;2022-12-18T04:18:35;27.50;;;17.77;;
12328;SDS011;6230;52.390;10.256;2022-12-18T04:21:01;28.73;;;18.33;;
12328;SDS011;6230;52.390;10.256;2022-12-18T04:23:27;26.33;;;18.43;;
12328;SDS011;6230;52.390;10.256;2022-12-18T04:25:53;26.93;;;18.33;;
12328;SDS011;6230;52.390;10.256;2022-12-18T04:28:19;23.50;;;16.57;;
12328;SDS011;6230;52.390;10.256;2022-12-18T04:30:44;26.90;;;17.60;;
12328;SDS011;6230;52.390;10.256;2022-12-18T04:33:16;24.87;;;16.43;;
12328;SDS011;6230;52.390;10.256;2022-12-18T04:35:41;25.70;;;16.97;;
12328;SDS011;6230;52.390;10.256;2022-12-18T04:38:08;26.63;;;17.30;;
12328;SDS011;6230;52.390;10.256;2022-12-18T04:40:35;27.60;;;16.77;;
12328;SDS011;6230;52.390;10.256;2022-12-18T04:43:01;24.87;;;17.07;;
12328;SDS011;6230;52.390;10.256;2022-12-18T04:45:27;23.53;;;16.17;;
12328;SDS011;6230;52.390;10.256;2022-12-18T04:47:53;27.13;;;16.97;;
12328;SDS011;6230;52.390;10.256;2022-12-18T04:50:18;23.23;;;15.83;;
12328;SDS011;6230;52.390;10.256;2022-12-18T04:52:44;23.50;;;16.20;;
12328;SDS011;6230;52.390;10.256;2022-12-18T04:55:09;25.20;;;16.53;;
12328;SDS011;6230;52.390;10.256;2022-12-18T04:57:35;23.37;;;16.10;;
12328;SDS011;6230;52.390;10.256;2022-12-18T05:00:00;26.67;;;17.33;;
12328;SDS011;6230;52.390;10.256;2022-12-18T05:02:26;27.07;;;17.60;;
12328;SDS011;6230;52.390;10.256;2022-12-18T05:04:52;26.57;;;18.07;;
12328;SDS011;6230;52.390;10.256;2022-12-18T05:07:17;25.13;;;16.47;;
12328;SDS011;6230;52.390;10.256;2022-12-18T05:09:43;27.27;;;17.10;;
12328;SDS011;6230;52.390;10.256;2022-12-18T05:12:09;27.77;;;17.63;;
12328;SDS011;6230;52.390;10.256;2022-12-18T05:14:34;23.13;;;16.43;;
12328;SDS011;6230;52.390;10.256;2022-12-18T05:17:00;28.43;;;16.33;;
12328;SDS011;6230;52.390;10.256;2022-12-18T05:19:25;28.07;;;16.80;;
12328;SDS011;6230;52.390;10.256;2022-12-18T05:21:51;22.20;;;15.80;;
12328;SDS011;6230;52.390;10.256;2022-12-18T05:24:16;27.37;;;16.67;;
12328;SDS011;6230;52.390;10.256;2022-12-18T05:26:42;26.83;;;16.80;;
12328;SDS011;6230;52.390;10.256;2022-12-18T05:29:07;25.40;;;17.57;;
12328;SDS011;6230;52.390;10.256;2022-12-18T05:31:33;22.60;;;15.93;;
12328;SDS011;6230;52.390;10.256;2022-12-18T05:33:58;25.93;;;16.63;;
12328;SDS011;6230;52.390;10.256;2022-12-18T05:36:24;23.73;;;16.37;;
12328;SDS011;6230;52.390;10.256;2022-12-18T05:38:49;25.07;;;16.63;;
12328;SDS011;6230;52.390;10.256;2022-12-18T05:41:15;26.90;;;17.60;;
12328;SDS011;6230;52.390;10.256;2022-12-18T05:43:41;26.53;;;16.43;;
12328;SDS011;6230;52.390;10.256;2022-12-18T05:46:07;23.30;;;15.97;;
12328;SDS011;6230;52.390;10.256;2022-12-18T05:48:36;22.63;;;15.30;;
12328;SDS011;6230;52.390;10.256;2022-12-18T05:51:09;25.57;;;17.60;;
12328;SDS011;6230;52.390;10.256;2022-12-18T05:53:39;24.43;;;16.00;;
12328;SDS011;6230;52.390;10.256;2022-12-18T05:56:06;23.13;;;15.67;;
12328;SDS011;6230;52.390;10.256;2022-12-18T05:58:34;25.80;;;16.17;;
12328;SDS011;6230;52.390;10.256;2022-12-18T06:01:13;24.37;;;16.50;;
12328;SDS011;6230;52.390;10.256;2022-12-18T06:03:41;24.67;;;15.77;;
12328;SDS011;6230;52.390;10.256;2022-12-18T06:06:14;24.27;;;15.97;;
12328;SDS011;6230;52.390;10.256;2022-12-18T06:08:42;24.17;;;15.47;;
12328;SDS011;6230;52.390;10.256;2022-12-18T06:11:07;27.47;;;16.67;;
12328;SDS011;6230;52.390;10.256;2022-12-18T06:13:33;22.87;;;15.87;;
12328;SDS011;6230;52.390;10.256;2022-12-18T06:16:01;24.50;;;15.77;;
12328;SDS011;6230;52.390;10.256;2022-12-18T06:18:28;23.80;;;16.47;;
12328;SDS011;6230;52.390;10.256;2022-12-18T06:20:54;25.07;;;15.90;;
12328;SDS011;6230;52.390;10.256;2022-12-18T06:23:21;23.90;;;15.73;;
12328;SDS011;6230;52.390;10.256;2022-12-18T06:25:47;25.17;;;15.47;;
12328;SDS011;6230;52.390;10.256;2022-12-18T06:28:12;26.23;;;16.40;;
12328;SDS011;6230;52.390;10.256;2022-12-18T06:30:38;24.63;;;16.53;;
12328;SDS011;6230;52.390;10.256;2022-12-18T06:33:03;20.90;;;15.50;;
12328;SDS011;6230;52.390;10.256;2022-12-18T06:35:29;23.70;;;16.70;;
12328;SDS011;6230;52.390;10.256;2022-12-18T06:37:54;27.13;;;17.37;;
12328;SDS011;6230;52.390;10.256;2022-12-18T06:40:20;26.67;;;17.83;;
12328;SDS011;6230;52.390;10.256;2022-12-18T06:42:45;24.07;;;17.20;;
12328;SDS011;6230;52.390;10.256;2022-12-18T06:45:11;27.10;;;17.77;;
12328;SDS011;6230;52.390;10.256;2022-12-18T06:47:39;29.40;;;18.83;;
12328;SDS011;6230;52.390;10.256;2022-12-18T06:50:05;25.90;;;18.50;;
12328;SDS011;6230;52.390;10.256;2022-12-18T06:52:32;28.50;;;18.83;;
12328;SDS011;6230;52.390;10.256;2022-12-18T06:54:57;25.70;;;17.73;;
12328;SDS011;6230;52.390;10.256;2022-12-18T06:57:23;28.17;;;18.53;;
12328;SDS011;6230;52.390;10.256;2022-12-18T06:59:48;28.17;;;18.70;;
12328;SDS011;6230;52.390;10.256;2022-12-18T07:02:14;27.67;;;18.37;;
12328;SDS011;6230;52.390;10.256;2022-12-18T07:04:40;26.77;;;18.20;;
12328;SDS011;6230;52.390;10.256;2022-12-18T07:07:05;31.27;;;22.00;;
12328;SDS011;6230;52.390;10.256;2022-12-18T07:09:31;30.93;;;18.23;;
12328;SDS011;6230;52.390;10.256;2022-12-18T07:11:56;31.70;;;19.57;;
12328;SDS011;6230;52.390;10.256;2022-12-18T07:14:22;28.23;;;18.57;;
12328;SDS011;6230;52.390;10.256;2022-12-18T07:16:47;27.50;;;18.20;;
12328;SDS011;6230;52.390;10.256;2022-12-18T07:19:13;30.83;;;19.07;;
12328;SDS011;6230;52.390;10.256;2022-12-18T07:21:38;31.60;;;19.73;;
12328;SDS011;6230;52.390;10.256;2022-12-18T07:24:04;28.40;;;19.30;;
12328;SDS011;6230;52.390;10.256;2022-12-18T07:26:30;31.23;;;18.67;;
12328;SDS011;6230;52.390;10.256;2022-12-18T07:28:56;30.37;;;18.83;;
12328;SDS011;6230;52.390;10.256;2022-12-18T07:31:23;29.90;;;18.97;;
12328;SDS011;6230;52.390;10.256;2022-12-18T07:33:49;28.10;;;18.93;;
12328;SDS011;6230;52.390;10.256;2022-12-18T07:36:15;29.23;;;18.97;;
12328;SDS011;6230;52.390;10.256;2022-12-18T07:38:41;31.93;;;18.93;;
12328;SDS011;6230;52.390;10.256;2022-12-18T07:41:09;37.37;;;25.70;;
12328;SDS011;6230;52.390;10.256;2022-12-18T07:43:36;32.03;;;19.97;;
12328;SDS011;6230;52.390;10.256;2022-12-18T07:46:03;29.03;;;20.17;;
12328;SDS011;6230;52.390;10.256;2022-12-18T07:48:29;32.63;;;20.83;;
12328;SDS011;6230;52.390;10.256;2022-12-18T07:50:58;31.97;;;19.17;;
12328;SDS011;6230;52.390;10.256;2022-12-18T07:53:25;29.80;;;22.27;;
12328;SDS011;6230;52.390;10.256;2022-12-18T07:55:57;26.63;;;17.50;;
12328;SDS011;6230;52.390;10.256;2022-12-18T07:58:23;30.10;;;19.20;;
12328;SDS011;6230;52.390;10.256;2022-12-18T08:00:49;30.40;;;20.13;;
12328;SDS011;6230;52.390;10.256;2022-12-18T08:03:15;31.50;;;21.87;;
12328;SDS011;6230;52.390;10.256;2022-12-18T08:05:41;33.90;;;22.97;;
12328;SDS011;6230;52.390;10.256;2022-12-18T08:08:06;28.80;;;19.47;;
12328;SDS011;6230;52.390;10.256;2022-12-18T08:10:32;31.00;;;23.30;;
12328;SDS011;6230;52.390;10.256;2022-12-18T08:12:57;35.80;;;27.97;;
12328;SDS011;6230;52.390;10.256;2022-12-18T08:15:23;31.83;;;24.27;;
12328;SDS011;6230;52.390;10.256;2022-12-18T08:17:48;30.53;;;21.37;;
12328;SDS011;6230;52.390;10.256;2022-12-18T08:20:14;33.77;;;21.10;;
12328;SDS011;6230;52.390;10.256;2022-12-18T08:22:40;34.13;;;22.93;;
12328;SDS011;6230;52.390;10.256;2022-12-18T08:25:07;33.33;;;21.10;;
12328;SDS011;6230;52.390;10.256;2022-12-18T08:27:33;38.03;;;24.03;;
12328;SDS011;6230;52.390;10.256;2022-12-18T08:29:59;36.17;;;26.83;;
12328;SDS011;6230;52.390;10.256;2022-12-18T08:32:25;34.20;;;22.37;;
12328;SDS011;6230;52.390;10.256;2022-12-18T08:34:51;41.07;;;31.23;;
12328;SDS011;6230;52.390;10.256;2022-12-18T08:37:17;33.37;;;21.03;;
12328;SDS011;6230;52.390;10.256;2022-12-18T08:39:42;33.20;;;21.50;;
12328;SDS011;6230;52.390;10.256;2022-12-18T08:42:08;35.30;;;25.20;;
12328;SDS011;6230;52.390;10.256;2022-12-18T08:44:52;33.03;;;19.17;;
12328;SDS011;6230;52.390;10.256;2022-12-18T08:47:18;33.40;;;20.30;;
12328;SDS011;6230;52.390;10.256;2022-12-18T08:49:43;34.30;;;19.70;;
12328;SDS011;6230;52.390;10.256;2022-12-18T08:52:09;31.57;;;20.27;;
12328;SDS011;6230;52.390;10.256;2022-12-18T08:54:34;33.33;;;19.53;;
12328;SDS011;6230;52.390;10.256;2022-12-18T08:57:00;30.63;;;19.73;;
12328;SDS011;6230;52.390;10.256;2022-12-18T08:59:28;31.77;;;20.10;;
12328;SDS011;6230;52.390;10.256;2022-12-18T09:01:54;30.70;;;20.07;;
12328;SDS011;6230;52.390;10.256;2022-12-18T09:04:20;38.43;;;26.73;;
12328;SDS011;6230;52.390;10.256;2022-12-18T09:06:46;34.43;;;20.37;;
12328;SDS011;6230;52.390;10.256;2022-12-18T09:09:11;31.03;;;20.27;;
12328;SDS011;6230;52.390;10.256;2022-12-18T09:11:37;33.90;;;19.77;;
12328;SDS011;6230;52.390;10.256;2022-12-18T09:14:03;32.53;;;19.53;;
12328;SDS011;6230;52.390;10.256;2022-12-18T09:16:29;34.83;;;25.87;;
12328;SDS011;6230;52.390;10.256;2022-12-18T09:18:55;31.03;;;20.17;;
12328;SDS011;6230;52.390;10.256;2022-12-18T09:21:25;31.07;;;19.77;;
12328;SDS011;6230;52.390;10.256;2022-12-18T09:23:52;34.50;;;21.40;;
12328;SDS011;6230;52.390;10.256;2022-12-18T09:26:20;30.93;;;19.77;;
12328;SDS011;6230;52.390;10.256;2022-12-18T09:28:46;40.90;;;33.40;;
12328;SDS011;6230;52.390;10.256;2022-12-18T09:31:15;34.80;;;22.70;;
12328;SDS011;6230;52.390;10.256;2022-12-18T09:33:42;32.63;;;21.47;;
12328;SDS011;6230;52.390;10.256;2022-12-18T09:36:08;27.67;;;17.83;;
12328;SDS011;6230;52.390;10.256;2022-12-18T09:38:36;31.83;;;19.90;;
12328;SDS011;6230;52.390;10.256;2022-12-18T09:41:05;30.60;;;18.27;;
12328;SDS011;6230;52.390;10.256;2022-12-18T09:43:41;33.97;;;21.23;;
12328;SDS011;6230;52.390;10.256;2022-12-18T09:46:15;28.93;;;19.27;;
12328;SDS011;6230;52.390;10.256;2022-12-18T09:48:50;32.23;;;19.07;;
12328;SDS011;6230;52.390;10.256;2022-12-18T09:51:23;31.73;;;20.67;;
12328;SDS011;6230;52.390;10.256;2022-12-18T09:54:12;33.37;;;18.97;;
12328;SDS011;6230;52.390;10.256;2022-12-18T09:56:43;32.20;;;22.43;;
12328;SDS011;6230;52.390;10.256;2022-12-18T10:01:56;30.87;;;18.47;;
12328;SDS011;6230;52.390;10.256;2022-12-18T10:04:23;31.30;;;17.90;;
12328;SDS011;6230;52.390;10.256;2022-12-18T10:06:53;31.33;;;17.93;;
12328;SDS011;6230;52.390;10.256;2022-12-18T10:15:08;29.07;;;17.80;;
12328;SDS011;6230;52.390;10.256;2022-12-18T10:18:28;27.77;;;17.10;;
12328;SDS011;6230;52.390;10.256;2022-12-18T10:20:48;23.90;;;15.47;;
12328;SDS011;6230;52.390;10.256;2022-12-18T10:26:16;30.37;;;18.87;;
12328;SDS011;6230;52.390;10.256;2022-12-18T10:28:42;26.27;;;15.97;;
12328;SDS011;6230;52.390;10.256;2022-12-18T10:31:16;21.50;;;14.40;;
12328;SDS011;6230;52.390;10.256;2022-12-18T10:33:43;24.77;;;15.47;;
12328;SDS011;6230;52.390;10.256;2022-12-18T10:36:09;24.17;;;14.83;;
12328;SDS011;6230;52.390;10.256;2022-12-18T10:38:35;25.43;;;14.57;;
12328;SDS011;6230;52.390;10.256;2022-12-18T10:41:02;26.80;;;16.13;;
12328;SDS011;6230;52.390;10.256;2022-12-18T10:43:33;21.37;;;14.20;;
12328;SDS011;6230;52.390;10.256;2022-12-18T10:48:33;30.53;;;17.03;;
12328;SDS011;6230;52.390;10.256;2022-12-18T10:51:05;22.10;;;13.97;;
12328;SDS011;6230;52.390;10.256;2022-12-18T10:53:32;21.33;;;14.60;;
12328;SDS011;6230;52.390;10.256;2022-12-18T10:56:00;24.50;;;15.37;;
12328;SDS011;6230;52.390;10.256;2022-12-18T10:58:32;26.97;;;15.90;;
12328;SDS011;6230;52.390;10.256;2022-12-18T11:01:16;19.67;;;14.20;;
12328;SDS011;6230;52.390;10.256;2022-12-18T11:06:20;22.43;;;13.90;;
12328;SDS011;6230;52.390;10.256;2022-12-18T11:09:23;25.00;;;15.17;;
12328;SDS011;6230;52.390;10.256;2022-12-18T11:11:49;23.20;;;14.63;;
12328;SDS011;6230;52.390;10.256;2022-12-18T11:16:57;19.03;;;13.20;;
12328;SDS011;6230;52.390;10.256;2022-12-18T11:22:01;69.67;;;30.47;;
12328;SDS011;6230;52.390;10.256;2022-12-18T11:25:07;25.40;;;16.63;;
12328;SDS011;6230;52.390;10.256;2022-12-18T11:28:45;20.63;;;13.97;;
12328;SDS011;6230;52.390;10.256;2022-12-18T11:31:37;23.30;;;13.83;;
12328;SDS011;6230;52.390;10.256;2022-12-18T11:33:45;22.93;;;14.60;;
12328;SDS011;6230;52.390;10.256;2022-12-18T11:36:15;27.00;;;16.87;;
12328;SDS011;6230;52.390;10.256;2022-12-18T11:38:41;23.83;;;14.83;;
12328;SDS011;6230;52.390;10.256;2022-12-18T11:41:26;23.77;;;14.20;;
12328;SDS011;6230;52.390;10.256;2022-12-18T11:44:18;21.23;;;14.23;;
12328;SDS011;6230;52.390;10.256;2022-12-18T11:46:51;20.20;;;14.10;;
12328;SDS011;6230;52.390;10.256;2022-12-18T11:49:25;20.03;;;13.27;;
12328;SDS011;6230;52.390;10.256;2022-12-18T11:51:58;18.57;;;13.00;;
12328;SDS011;6230;52.390;10.256;2022-12-18T11:54:34;20.77;;;13.60;;
12328;SDS011;6230;52.390;10.256;2022-12-18T11:59:48;22.20;;;14.03;;
12328;SDS011;6230;52.390;10.256;2022-12-18T12:10:40;22.47;;;15.13;;
12328;SDS011;6230;52.390;10.256;2022-12-18T12:13:37;21.43;;;14.90;;
12328;SDS011;6230;52.390;10.256;2022-12-18T12:16:41;18.40;;;13.57;;
12328;SDS011;6230;52.390;10.256;2022-12-18T12:30:25;20.87;;;14.73;;
12328;SDS011;6230;52.390;10.256;2022-12-18T12:38:46;20.63;;;14.30;;
12328;SDS011;6230;52.390;10.256;2022-12-18T12:41:20;23.30;;;15.80;;
12328;SDS011;6230;52.390;10.256;2022-12-18T12:44:08;24.60;;;15.27;;
12328;SDS011;6230;52.390;10.256;2022-12-18T12:46:44;23.87;;;14.93;;
12328;SDS011;6230;52.390;10.256;2022-12-18T12:49:14;22.53;;;15.33;;
12328;SDS011;6230;52.390;10.256;2022-12-18T12:51:47;21.03;;;15.00;;
12328;SDS011;6230;52.390;10.256;2022-12-18T12:54:23;21.33;;;15.00;;
12328;SDS011;6230;52.390;10.256;2022-12-18T12:57:09;20.03;;;14.50;;
12328;SDS011;6230;52.390;10.256;2022-12-18T13:07:59;21.00;;;15.63;;
12328;SDS011;6230;52.390;10.256;2022-12-18T13:10:35;21.70;;;15.20;;
12328;SDS011;6230;52.390;10.256;2022-12-18T13:13:06;23.47;;;15.30;;
12328;SDS011;6230;52.390;10.256;2022-12-18T13:15:41;22.43;;;14.97;;
12328;SDS011;6230;52.390;10.256;2022-12-18T13:18:21;19.03;;;14.03;;
12328;SDS011;6230;52.390;10.256;2022-12-18T13:23:28;22.20;;;15.43;;
12328;SDS011;6230;52.390;10.256;2022-12-18T13:25:57;20.20;;;14.93;;
12328;SDS011;6230;52.390;10.256;2022-12-18T13:33:43;20.50;;;14.53;;
12328;SDS011;6230;52.390;10.256;2022-12-18T13:38:47;22.33;;;14.93;;
12328;SDS011;6230;52.390;10.256;2022-12-18T13:41:39;24.97;;;15.70;;
12328;SDS011;6230;52.390;10.256;2022-12-18T13:46:54;23.10;;;14.17;;
12328;SDS011;6230;52.390;10.256;2022-12-18T13:49:25;22.00;;;15.13;;
12328;SDS011;6230;52.390;10.256;2022-12-18T13:52:19;24.07;;;15.13;;
12328;SDS011;6230;52.390;10.256;2022-12-18T13:54:50;23.43;;;16.30;;
12328;SDS011;6230;52.390;10.256;2022-12-18T13:57:30;20.53;;;14.73;;
12328;SDS011;6230;52.390;10.256;2022-12-18T14:02:53;22.87;;;15.10;;
12328;SDS011;6230;52.390;10.256;2022-12-18T14:05:23;26.67;;;16.53;;
12328;SDS011;6230;52.390;10.256;2022-12-18T14:07:50;26.03;;;15.13;;
12328;SDS011;6230;52.390;10.256;2022-12-18T14:10:17;24.00;;;16.23;;
12328;SDS011;6230;52.390;10.256;2022-12-18T14:12:49;23.93;;;16.00;;
12328;SDS011;6230;52.390;10.256;2022-12-18T14:15:29;23.60;;;16.03;;
12328;SDS011;6230;52.390;10.256;2022-12-18T14:20:43;22.23;;;15.77;;
12328;SDS011;6230;52.390;10.256;2022-12-18T14:25:58;23.27;;;16.33;;
12328;SDS011;6230;52.390;10.256;2022-12-18T14:28:24;23.40;;;16.13;;
12328;SDS011;6230;52.390;10.256;2022-12-18T14:30:51;24.87;;;16.07;;
12328;SDS011;6230;52.390;10.256;2022-12-18T14:33:18;25.50;;;17.00;;
12328;SDS011;6230;52.390;10.256;2022-12-18T14:35:53;26.97;;;17.87;;
12328;SDS011;6230;52.390;10.256;2022-12-18T14:43:29;24.37;;;16.47;;
12328;SDS011;6230;52.390;10.256;2022-12-18T14:45:57;29.87;;;18.20;;
12328;SDS011;6230;52.390;10.256;2022-12-18T14:48:30;26.27;;;17.17;;
12328;SDS011;6230;52.390;10.256;2022-12-18T14:51:01;27.03;;;17.07;;
12328;SDS011;6230;52.390;10.256;2022-12-18T14:53:53;27.13;;;16.80;;
12328;SDS011;6230;52.390;10.256;2022-12-18T14:56:26;21.93;;;14.87;;
12328;SDS011;6230;52.390;10.256;2022-12-18T15:01:31;24.77;;;15.07;;
12328;SDS011;6230;52.390;10.256;2022-12-18T15:04:01;24.50;;;15.60;;
12328;SDS011;6230;52.390;10.256;2022-12-18T15:06:29;23.37;;;15.50;;
12328;SDS011;6230;52.390;10.256;2022-12-18T15:08:55;20.17;;;14.50;;
12328;SDS011;6230;52.390;10.256;2022-12-18T15:11:35;20.07;;;14.97;;
12328;SDS011;6230;52.390;10.256;2022-12-18T15:17:17;16.87;;;11.90;;
12328;SDS011;6230;52.390;10.256;2022-12-18T15:19:45;20.60;;;14.40;;
12328;SDS011;6230;52.390;10.256;2022-12-18T15:24:49;17.83;;;11.80;;
12328;SDS011;6230;52.390;10.256;2022-12-18T15:27:22;18.07;;;12.13;;
12328;SDS011;6230;52.390;10.256;2022-12-18T15:32:35;21.33;;;12.40;;
12328;SDS011;6230;52.390;10.256;2022-12-18T15:35:03;17.63;;;14.93;;
12328;SDS011;6230;52.390;10.256;2022-12-18T15:37:37;21.77;;;18.27;;
12328;SDS011;6230;52.390;10.256;2022-12-18T15:40:03;19.10;;;13.47;;
12328;SDS011;6230;52.390;10.256;2022-12-18T15:42:29;19.23;;;12.37;;
12328;SDS011;6230;52.390;10.256;2022-12-18T15:45:13;18.43;;;12.20;;
12328;SDS011;6230;52.390;10.256;2022-12-18T15:47:39;16.93;;;12.73;;
12328;SDS011;6230;52.390;10.256;2022-12-18T15:50:07;17.33;;;11.77;;
12328;SDS011;6230;52.390;10.256;2022-12-18T15:52:35;16.87;;;11.27;;
12328;SDS011;6230;52.390;10.256;2022-12-18T15:55:13;14.73;;;11.70;;
12328;SDS011;6230;52.390;10.256;2022-12-18T15:57:58;15.43;;;11.43;;
12328;SDS011;6230;52.390;10.256;2022-12-18T16:00:23;17.73;;;11.90;;
12328;SDS011;6230;52.390;10.256;2022-12-18T16:02:49;17.87;;;12.00;;
12328;SDS011;6230;52.390;10.256;2022-12-18T16:05:15;15.50;;;11.90;;
12328;SDS011;6230;52.390;10.256;2022-12-18T16:07:43;17.37;;;12.07;;
12328;SDS011;6230;52.390;10.256;2022-12-18T16:10:09;15.97;;;11.60;;
12328;SDS011;6230;52.390;10.256;2022-12-18T16:12:34;17.70;;;12.30;;
12328;SDS011;6230;52.390;10.256;2022-12-18T16:15:00;18.97;;;12.90;;
12328;SDS011;6230;52.390;10.256;2022-12-18T16:17:26;16.77;;;12.00;;
12328;SDS011;6230;52.390;10.256;2022-12-18T16:19:52;17.03;;;11.93;;
12328;SDS011;6230;52.390;10.256;2022-12-18T16:22:18;16.63;;;12.20;;
12328;SDS011;6230;52.390;10.256;2022-12-18T16:24:46;19.83;;;12.57;;
12328;SDS011;6230;52.390;10.256;2022-12-18T16:27:12;16.50;;;11.83;;
12328;SDS011;6230;52.390;10.256;2022-12-18T16:29:37;18.83;;;11.97;;
12328;SDS011;6230;52.390;10.256;2022-12-18T16:32:03;20.07;;;12.20;;
12328;SDS011;6230;52.390;10.256;2022-12-18T16:34:29;17.30;;;11.90;;
12328;SDS011;6230;52.390;10.256;2022-12-18T16:36:57;16.87;;;11.40;;
12328;SDS011;6230;52.390;10.256;2022-12-18T16:39:25;16.07;;;11.13;;